createdAt,value
2022-12-03T00:00:26.340Z,97.21
2022-12-03T00:00:57.921Z,97.29
2022-12-03T00:01:29.471Z,97.51
2022-12-03T00:02:01.057Z,97.39
2022-12-03T00:02:32.845Z,97.18
2022-12-03T00:03:04.730Z,96.89
2022-12-03T00:03:36.770Z,96.79
2022-12-03T00:04:08.515Z,96.92
2022-12-03T00:04:40.131Z,97.00
2022-12-03T00:05:12.003Z,96.75
2022-12-03T00:05:48.784Z,96.74
2022-12-03T00:06:20.890Z,96.58
2022-12-03T00:06:52.579Z,96.56
2022-12-03T00:07:24.261Z,96.55
2022-12-03T00:07:55.921Z,96.54
2022-12-03T00:08:27.623Z,96.77
2022-12-03T00:08:59.207Z,96.79
2022-12-03T00:09:30.820Z,96.74
2022-12-03T00:10:02.408Z,96.63
2022-12-03T00:10:34.012Z,96.86
2022-12-03T00:11:05.692Z,96.98
2022-12-03T00:11:37.272Z,97.10
2022-12-03T00:12:08.874Z,97.22
2022-12-03T00:12:40.608Z,96.92
2022-12-03T00:13:12.235Z,96.89
2022-12-03T00:13:43.869Z,96.97
2022-12-03T00:14:15.463Z,96.85
2022-12-03T00:14:47.092Z,96.83
2022-12-03T00:15:18.724Z,96.82
2022-12-03T00:15:50.329Z,96.78
2022-12-03T00:16:22.081Z,97.16
2022-12-03T00:16:53.738Z,97.15
2022-12-03T00:17:25.352Z,97.03
2022-12-03T00:17:56.929Z,96.97
2022-12-03T00:18:28.554Z,96.57
2022-12-03T00:19:00.119Z,96.58
2022-12-03T00:19:31.668Z,96.88
2022-12-03T00:20:04.534Z,96.81
2022-12-03T00:20:36.166Z,96.99
2022-12-03T00:21:07.706Z,97.06
2022-12-03T00:21:39.248Z,97.44
2022-12-03T00:22:12.671Z,96.99
2022-12-03T00:22:44.475Z,96.66
2022-12-03T00:23:16.022Z,96.78
2022-12-03T00:23:47.714Z,96.96
2022-12-03T00:24:19.274Z,96.86
2022-12-03T00:24:51.321Z,96.71
2022-12-03T00:25:23.220Z,96.99
2022-12-03T00:25:54.866Z,96.97
2022-12-03T00:26:26.450Z,97.00
2022-12-03T00:26:58.086Z,97.14
2022-12-03T00:27:29.646Z,97.20
2022-12-03T00:28:01.194Z,97.05
2022-12-03T00:28:32.744Z,96.69
2022-12-03T00:29:04.337Z,96.72
2022-12-03T00:29:35.950Z,96.81
2022-12-03T00:30:08.535Z,96.76
2022-12-03T00:30:40.200Z,96.68
2022-12-03T00:31:11.830Z,96.60
2022-12-03T00:31:45.543Z,96.75
2022-12-03T00:32:17.298Z,96.86
2022-12-03T00:32:48.911Z,96.81
2022-12-03T00:33:21.783Z,96.61
2022-12-03T00:33:53.669Z,96.77
2022-12-03T00:34:25.241Z,96.85
2022-12-03T00:34:56.856Z,96.96
2022-12-03T00:35:28.444Z,96.81
2022-12-03T00:36:00.027Z,96.75
2022-12-03T00:36:31.622Z,96.67
2022-12-03T00:37:03.258Z,96.56
2022-12-03T00:37:35.352Z,96.36
2022-12-03T00:38:06.952Z,96.62
2022-12-03T00:38:38.543Z,96.96
2022-12-03T00:39:10.155Z,96.89
2022-12-03T00:39:41.723Z,96.93
2022-12-03T00:40:13.663Z,96.88
2022-12-03T00:40:45.336Z,97.08
2022-12-03T00:41:16.878Z,97.33
2022-12-03T00:41:48.462Z,97.32
2022-12-03T00:42:20.036Z,97.21
2022-12-03T00:42:51.615Z,97.16
2022-12-03T00:43:23.180Z,96.91
2022-12-03T00:43:57.629Z,96.55
2022-12-03T00:44:29.235Z,96.36
2022-12-03T00:45:00.892Z,96.46
2022-12-03T00:45:32.428Z,96.67
2022-12-03T00:46:04.046Z,96.85
2022-12-03T00:46:35.771Z,96.95
2022-12-03T00:47:07.374Z,97.04
2022-12-03T00:47:38.947Z,96.97
2022-12-03T00:48:10.499Z,96.98
2022-12-03T00:48:42.129Z,96.82
2022-12-03T00:49:13.687Z,96.93
2022-12-03T00:49:45.233Z,97.48
2022-12-03T00:50:16.983Z,97.10
2022-12-03T00:50:48.596Z,96.99
2022-12-03T00:51:20.157Z,96.89
2022-12-03T00:51:52.467Z,96.60
2022-12-03T00:52:24.064Z,96.67
2022-12-03T00:52:55.703Z,96.83
2022-12-03T00:53:27.446Z,96.82
2022-12-03T00:53:59.024Z,96.86
2022-12-03T00:54:32.271Z,96.89
2022-12-03T00:55:04.462Z,97.01
2022-12-03T00:55:36.038Z,97.21
2022-12-03T00:56:08.190Z,97.26
2022-12-03T00:56:39.734Z,97.15
2022-12-03T00:57:11.282Z,97.34
2022-12-03T00:57:42.830Z,97.27
2022-12-03T00:58:14.412Z,97.43
2022-12-03T00:58:46.082Z,97.41
2022-12-03T00:59:17.708Z,97.50
2022-12-03T00:59:49.295Z,97.43
2022-12-03T01:00:24.814Z,97.30
2022-12-03T01:00:56.430Z,97.23
2022-12-03T01:01:28.077Z,97.13
2022-12-03T01:01:59.855Z,97.18
2022-12-03T01:02:31.801Z,97.17
2022-12-03T01:03:04.816Z,97.27
2022-12-03T01:03:36.425Z,97.05
2022-12-03T01:04:08.110Z,96.96
2022-12-03T01:04:39.817Z,96.76
2022-12-03T01:05:11.519Z,96.97
2022-12-03T01:05:43.108Z,97.05
2022-12-03T01:06:14.728Z,96.96
2022-12-03T01:06:46.320Z,97.18
2022-12-03T01:07:17.960Z,97.24
2022-12-03T01:07:49.610Z,97.12
2022-12-03T01:08:21.194Z,97.19
2022-12-03T01:08:52.776Z,97.11
2022-12-03T01:09:24.342Z,97.25
2022-12-03T01:09:55.938Z,97.24
2022-12-03T01:10:27.487Z,97.34
2022-12-03T01:10:59.098Z,97.46
2022-12-03T01:11:39.715Z,97.49
2022-12-03T01:12:12.117Z,97.66
2022-12-03T01:12:43.880Z,97.75
2022-12-03T01:13:15.452Z,97.32
2022-12-03T01:13:46.987Z,97.34
2022-12-03T01:14:19.716Z,97.41
2022-12-03T01:14:51.675Z,97.53
2022-12-03T01:15:23.451Z,97.57
2022-12-03T01:15:55.173Z,97.47
2022-12-03T01:16:26.948Z,97.41
2022-12-03T01:16:58.653Z,97.15
2022-12-03T01:17:30.314Z,97.32
2022-12-03T01:18:01.946Z,97.22
2022-12-03T01:18:33.526Z,97.21
2022-12-03T01:19:06.738Z,97.44
2022-12-03T01:19:42.233Z,97.42
2022-12-03T01:20:16.501Z,97.25
2022-12-03T01:20:48.092Z,97.32
2022-12-03T01:21:19.910Z,97.51
2022-12-03T01:21:51.912Z,97.75
2022-12-03T01:22:23.498Z,97.67
2022-12-03T01:22:55.082Z,97.79
2022-12-03T01:23:26.680Z,97.50
2022-12-03T01:23:58.347Z,97.33
2022-12-03T01:24:29.920Z,97.38
2022-12-03T01:25:01.675Z,97.45
2022-12-03T01:25:33.334Z,97.58
2022-12-03T01:26:05.066Z,97.39
2022-12-03T01:26:36.728Z,97.35
2022-12-03T01:27:08.314Z,97.14
2022-12-03T01:27:39.855Z,97.11
2022-12-03T01:28:11.514Z,97.20
2022-12-03T01:28:43.127Z,97.26
2022-12-03T01:29:14.952Z,97.24
2022-12-03T01:29:46.506Z,97.43
2022-12-03T01:30:18.142Z,97.64
2022-12-03T01:31:08.191Z,97.77
2022-12-03T01:31:58.321Z,97.64
2022-12-03T01:32:29.972Z,97.54
2022-12-03T01:33:01.513Z,97.57
2022-12-03T01:33:33.094Z,97.55
2022-12-03T01:34:05.309Z,97.30
2022-12-03T01:34:36.974Z,97.34
2022-12-03T01:35:09.000Z,97.18
2022-12-03T01:35:40.577Z,97.33
2022-12-03T01:36:12.157Z,97.27
2022-12-03T01:36:43.816Z,97.17
2022-12-03T01:37:16.166Z,97.42
2022-12-03T01:37:47.770Z,97.38
2022-12-03T01:38:19.491Z,97.54
2022-12-03T01:38:51.124Z,97.59
2022-12-03T01:39:22.764Z,97.63
2022-12-03T01:39:54.654Z,97.58
2022-12-03T01:40:26.298Z,97.66
2022-12-03T01:40:57.878Z,97.69
2022-12-03T01:41:29.837Z,97.78
2022-12-03T01:42:02.295Z,97.68
2022-12-03T01:42:39.364Z,97.54
2022-12-03T01:43:10.966Z,97.56
2022-12-03T01:43:43.521Z,97.66
2022-12-03T01:44:18.482Z,97.72
2022-12-03T01:44:52.973Z,97.63
2022-12-03T01:45:24.918Z,97.57
2022-12-03T01:45:56.569Z,97.56
2022-12-03T01:46:48.990Z,97.81
2022-12-03T01:47:24.601Z,97.93
2022-12-03T01:47:56.241Z,98.15
2022-12-03T01:48:32.345Z,98.01
2022-12-03T01:49:04.063Z,97.86
2022-12-03T01:49:38.438Z,97.89
2022-12-03T01:50:36.664Z,97.96
2022-12-03T01:51:08.308Z,97.82
2022-12-03T01:51:39.906Z,97.79
2022-12-03T01:52:17.373Z,97.63
2022-12-03T01:52:49.269Z,97.67
2022-12-03T01:53:20.923Z,97.64
2022-12-03T01:53:52.472Z,97.70
2022-12-03T01:54:37.319Z,97.85
2022-12-03T01:55:15.222Z,97.88
2022-12-03T01:55:49.081Z,97.91
2022-12-03T01:56:20.788Z,97.80
2022-12-03T01:56:53.797Z,97.95
2022-12-03T01:57:27.203Z,97.92
2022-12-03T01:58:02.348Z,97.81
2022-12-03T01:58:33.950Z,97.93
2022-12-03T01:59:05.597Z,97.91
2022-12-03T01:59:38.651Z,97.72
2022-12-03T02:01:10.565Z,97.74
2022-12-03T02:01:42.523Z,97.79
2022-12-03T02:02:21.269Z,97.76
2022-12-03T02:02:58.269Z,97.70
2022-12-03T02:03:29.931Z,97.65
2022-12-03T02:04:01.533Z,97.81
2022-12-03T02:04:33.365Z,97.93
2022-12-03T02:05:32.951Z,97.91
2022-12-03T02:06:04.761Z,97.88
2022-12-03T02:06:36.329Z,97.80
2022-12-03T02:07:25.040Z,97.47
2022-12-03T02:07:58.155Z,97.65
2022-12-03T02:08:31.356Z,97.61
2022-12-03T02:09:02.945Z,97.58
2022-12-03T02:09:34.525Z,97.59
2022-12-03T02:10:06.705Z,97.73
2022-12-03T02:10:38.635Z,97.89
2022-12-03T02:11:30.017Z,97.59
2022-12-03T02:12:01.621Z,97.41
2022-12-03T02:12:46.503Z,97.43
2022-12-03T02:13:18.267Z,97.19
2022-12-03T02:13:55.541Z,96.99
2022-12-03T02:14:27.118Z,97.31
2022-12-03T02:14:59.330Z,97.25
2022-12-03T02:15:30.885Z,97.38
2022-12-03T02:16:03.943Z,97.58
2022-12-03T02:16:37.297Z,97.53
2022-12-03T02:17:09.151Z,97.54
2022-12-03T02:17:40.928Z,97.43
2022-12-03T02:18:12.741Z,97.22
2022-12-03T02:18:44.523Z,97.31
2022-12-03T02:19:26.782Z,97.44
2022-12-03T02:20:00.058Z,97.38
2022-12-03T02:20:37.426Z,97.18
2022-12-03T02:21:32.705Z,97.32
2022-12-03T02:22:16.149Z,97.50
2022-12-03T02:22:47.709Z,97.44
2022-12-03T02:23:36.056Z,97.47
2022-12-03T02:24:23.844Z,97.56
2022-12-03T02:25:15.921Z,97.65
2022-12-03T02:25:47.750Z,97.49
2022-12-03T02:26:19.590Z,97.54
2022-12-03T02:26:51.223Z,97.51
2022-12-03T02:27:23.270Z,97.64
2022-12-03T02:27:55.940Z,97.67
2022-12-03T02:28:27.581Z,97.61
2022-12-03T02:28:59.453Z,97.78
2022-12-03T02:29:31.249Z,97.61
2022-12-03T02:30:05.584Z,97.65
2022-12-03T02:30:37.382Z,97.38
2022-12-03T02:31:09.093Z,97.42
2022-12-03T02:31:40.888Z,97.58
2022-12-03T02:32:12.491Z,97.77
2022-12-03T02:32:44.223Z,97.78
2022-12-03T02:33:15.814Z,97.86
2022-12-03T02:33:47.442Z,97.70
2022-12-03T02:34:39.490Z,97.69
2022-12-03T02:35:19.822Z,97.56
2022-12-03T02:35:51.393Z,97.48
2022-12-03T02:36:23.349Z,97.36
2022-12-03T02:36:55.040Z,97.36
2022-12-03T02:37:30.830Z,97.41
2022-12-03T02:38:26.132Z,97.47
2022-12-03T02:38:57.851Z,97.32
2022-12-03T02:39:29.595Z,97.11
2022-12-03T02:40:06.682Z,97.23
2022-12-03T02:40:38.665Z,97.34
2022-12-03T02:41:33.939Z,97.42
2022-12-03T02:42:24.985Z,97.38
2022-12-03T02:42:59.709Z,97.40
2022-12-03T02:43:31.542Z,97.29
2022-12-03T02:44:06.175Z,97.29
2022-12-03T02:44:38.012Z,97.31
2022-12-03T02:45:20.100Z,97.51
2022-12-03T02:45:55.131Z,97.43
2022-12-03T02:46:26.831Z,97.29
2022-12-03T02:46:58.500Z,97.20
2022-12-03T02:47:31.861Z,97.25
2022-12-03T02:48:09.696Z,97.50
2022-12-03T02:48:41.935Z,97.41
2022-12-03T02:49:13.691Z,97.26
2022-12-03T02:49:45.479Z,97.29
2022-12-03T02:50:22.060Z,97.22
2022-12-03T02:51:00.262Z,97.14
2022-12-03T02:51:32.941Z,97.11
2022-12-03T02:52:04.735Z,97.30
2022-12-03T02:52:37.134Z,97.51
2022-12-03T02:53:19.187Z,97.57
2022-12-03T02:53:53.482Z,97.53
2022-12-03T02:54:25.363Z,97.56
2022-12-03T02:54:57.249Z,97.59
2022-12-03T02:55:36.309Z,97.45
2022-12-03T02:56:09.522Z,97.54
2022-12-03T02:56:41.260Z,97.43
2022-12-03T02:57:13.100Z,97.49
2022-12-03T02:57:47.895Z,97.61
2022-12-03T02:58:19.655Z,97.74
2022-12-03T02:58:54.984Z,97.44
2022-12-03T02:59:26.604Z,97.63
2022-12-03T02:59:58.395Z,97.73
2022-12-03T03:00:30.298Z,97.81
2022-12-03T03:01:04.209Z,97.67
2022-12-03T03:01:36.037Z,97.63
2022-12-03T03:02:07.945Z,97.59
2022-12-03T03:02:41.287Z,97.66
2022-12-03T03:03:13.423Z,97.71
2022-12-03T03:03:47.265Z,97.34
2022-12-03T03:04:19.191Z,97.38
2022-12-03T03:04:51.410Z,97.37
2022-12-03T03:05:24.191Z,97.45
2022-12-03T03:05:56.826Z,97.42
2022-12-03T03:06:28.798Z,97.42
2022-12-03T03:07:00.406Z,97.59
2022-12-03T03:07:32.036Z,97.58
2022-12-03T03:08:04.952Z,97.79
2022-12-03T03:08:39.310Z,97.65
2022-12-03T03:09:10.974Z,97.71
2022-12-03T03:09:42.616Z,97.64
2022-12-03T03:10:16.985Z,97.48
2022-12-03T03:10:49.404Z,97.31
2022-12-03T03:11:21.034Z,97.38
2022-12-03T03:11:52.590Z,97.51
2022-12-03T03:12:24.173Z,97.52
2022-12-03T03:12:56.412Z,97.41
2022-12-03T03:13:31.134Z,97.37
2022-12-03T03:14:03.581Z,97.37
2022-12-03T03:14:35.702Z,97.32
2022-12-03T03:15:09.362Z,97.34
2022-12-03T03:15:41.909Z,97.39
2022-12-03T03:16:13.684Z,97.41
2022-12-03T03:16:45.368Z,97.32
2022-12-03T03:17:17.175Z,97.41
2022-12-03T03:17:48.940Z,97.54
2022-12-03T03:18:20.606Z,97.39
2022-12-03T03:18:52.254Z,97.32
2022-12-03T03:19:26.987Z,97.28
2022-12-03T03:19:58.673Z,97.38
2022-12-03T03:20:30.268Z,97.38
2022-12-03T03:21:02.302Z,97.35
2022-12-03T03:21:34.020Z,97.58
2022-12-03T03:22:05.788Z,97.55
2022-12-03T03:22:40.450Z,97.54
2022-12-03T03:23:11.982Z,97.48
2022-12-03T03:23:43.656Z,97.52
2022-12-03T03:24:15.716Z,97.35
2022-12-03T03:24:47.326Z,97.59
2022-12-03T03:25:21.376Z,97.50
2022-12-03T03:26:08.873Z,97.39
2022-12-03T03:26:40.468Z,97.48
2022-12-03T03:27:12.094Z,97.40
2022-12-03T03:27:44.982Z,97.16
2022-12-03T03:28:16.934Z,97.14
2022-12-03T03:28:51.282Z,97.28
2022-12-03T03:29:22.906Z,97.44
2022-12-03T03:29:56.262Z,97.54
2022-12-03T03:30:28.203Z,97.71
2022-12-03T03:31:02.931Z,97.51
2022-12-03T03:31:34.947Z,97.58
2022-12-03T03:32:06.820Z,97.66
2022-12-03T03:32:40.095Z,97.61
2022-12-03T03:33:13.630Z,97.49
2022-12-03T03:33:49.218Z,97.60
2022-12-03T03:34:21.063Z,97.44
2022-12-03T03:34:53.274Z,97.72
2022-12-03T03:35:25.656Z,97.89
2022-12-03T03:35:57.598Z,97.81
2022-12-03T03:36:29.230Z,97.76
2022-12-03T03:37:00.979Z,97.74
2022-12-03T03:37:32.691Z,97.67
2022-12-03T03:38:05.282Z,97.63
2022-12-03T03:38:38.122Z,97.60
2022-12-03T03:39:09.997Z,97.64
2022-12-03T03:39:41.667Z,97.47
2022-12-03T03:40:13.861Z,97.67
2022-12-03T03:40:46.810Z,97.87
2022-12-03T03:41:19.838Z,97.91
2022-12-03T03:41:51.589Z,97.85
2022-12-03T03:42:23.859Z,97.86
2022-12-03T03:42:56.207Z,97.81
2022-12-03T03:43:29.671Z,97.92
2022-12-03T03:44:01.870Z,98.08
2022-12-03T03:44:33.590Z,98.14
2022-12-03T03:45:07.221Z,98.13
2022-12-03T03:45:39.087Z,98.09
2022-12-03T03:46:11.790Z,98.02
2022-12-03T03:46:43.620Z,97.97
2022-12-03T03:47:16.242Z,97.92
2022-12-03T03:47:47.998Z,97.97
2022-12-03T03:48:20.242Z,97.82
2022-12-03T03:48:52.276Z,97.73
2022-12-03T03:49:24.077Z,97.67
2022-12-03T03:49:55.820Z,97.86
2022-12-03T03:50:29.446Z,97.80
2022-12-03T03:51:03.741Z,97.79
2022-12-03T03:51:38.082Z,97.69
2022-12-03T03:52:11.743Z,97.60
2022-12-03T03:52:44.361Z,97.52
2022-12-03T03:53:17.199Z,97.51
2022-12-03T03:53:49.572Z,97.29
2022-12-03T03:54:22.777Z,97.43
2022-12-03T03:54:54.485Z,97.57
2022-12-03T03:55:26.687Z,97.65
2022-12-03T03:55:58.274Z,97.48
2022-12-03T03:56:30.258Z,97.37
2022-12-03T03:57:01.962Z,97.47
2022-12-03T03:57:33.832Z,97.53
2022-12-03T03:58:05.639Z,97.77
2022-12-03T03:58:38.196Z,97.76
2022-12-03T03:59:09.861Z,97.85
2022-12-03T03:59:41.737Z,97.66
2022-12-03T04:00:13.801Z,97.64
2022-12-03T04:00:46.129Z,97.46
2022-12-03T04:01:18.463Z,97.66
2022-12-03T04:01:50.111Z,97.86
2022-12-03T04:02:24.235Z,98.01
2022-12-03T04:02:55.841Z,97.99
2022-12-03T04:03:28.791Z,97.75
2022-12-03T04:04:00.704Z,97.92
2022-12-03T04:04:36.594Z,97.63
2022-12-03T04:05:16.851Z,97.47
2022-12-03T04:05:50.997Z,97.60
2022-12-03T04:06:22.720Z,97.50
2022-12-03T04:06:54.328Z,97.35
2022-12-03T04:07:26.017Z,97.42
2022-12-03T04:07:58.905Z,97.47
2022-12-03T04:08:30.963Z,97.53
2022-12-03T04:09:02.588Z,97.37
2022-12-03T04:09:34.175Z,97.38
2022-12-03T04:10:26.429Z,97.29
2022-12-03T04:11:16.338Z,97.18
2022-12-03T04:12:06.190Z,97.40
2022-12-03T04:12:55.858Z,97.45
2022-12-03T04:13:27.496Z,97.53
2022-12-03T04:13:59.080Z,97.35
2022-12-03T04:14:30.666Z,97.47
2022-12-03T04:15:02.423Z,97.64
2022-12-03T04:15:34.598Z,97.59
2022-12-03T04:16:06.452Z,97.43
2022-12-03T04:16:39.226Z,97.36
2022-12-03T04:17:10.910Z,97.21
2022-12-03T04:17:42.459Z,97.25
2022-12-03T04:18:32.449Z,97.54
2022-12-03T04:19:04.006Z,97.43
2022-12-03T04:19:35.592Z,97.36
2022-12-03T04:20:07.327Z,97.44
2022-12-03T04:20:38.917Z,97.51
2022-12-03T04:21:37.095Z,97.53
2022-12-03T04:22:27.194Z,97.45
2022-12-03T04:22:58.782Z,97.28
2022-12-03T04:23:31.105Z,97.32
2022-12-03T04:24:03.607Z,97.38
2022-12-03T04:24:35.143Z,97.43
2022-12-03T04:25:27.827Z,97.26
2022-12-03T04:26:17.782Z,97.23
2022-12-03T04:27:07.711Z,97.57
2022-12-03T04:27:57.589Z,97.28
2022-12-03T04:28:47.513Z,97.15
2022-12-03T04:29:19.690Z,97.13
2022-12-03T04:29:51.242Z,97.52
2022-12-03T04:30:22.931Z,97.41
2022-12-03T04:30:54.696Z,97.35
2022-12-03T04:31:44.686Z,97.05
2022-12-03T04:32:54.430Z,96.85
2022-12-03T04:33:44.971Z,96.50
2022-12-03T04:34:35.235Z,96.46
2022-12-03T04:35:25.993Z,96.53
2022-12-03T04:35:58.670Z,96.87
2022-12-03T04:36:30.291Z,96.89
2022-12-03T04:37:02.310Z,96.92
2022-12-03T04:37:33.901Z,97.16
2022-12-03T04:38:05.439Z,97.65
2022-12-03T04:38:37.051Z,97.62
2022-12-03T04:39:08.622Z,97.36
2022-12-03T04:39:40.291Z,97.21
2022-12-03T04:40:30.578Z,96.99
2022-12-03T04:41:03.927Z,96.93
2022-12-03T04:41:35.595Z,97.29
2022-12-03T04:42:07.760Z,97.34
2022-12-03T04:42:39.299Z,97.16
2022-12-03T04:43:10.843Z,97.11
2022-12-03T04:44:02.404Z,97.14
2022-12-03T04:44:37.461Z,97.06
2022-12-03T04:45:09.427Z,96.96
2022-12-03T04:45:40.994Z,97.05
2022-12-03T04:46:12.693Z,97.24
2022-12-03T04:46:44.470Z,97.54
2022-12-03T04:47:18.781Z,97.46
2022-12-03T04:47:50.420Z,97.27
2022-12-03T04:48:22.013Z,97.43
2022-12-03T04:48:53.632Z,97.33
2022-12-03T04:49:25.222Z,97.06
2022-12-03T04:49:56.808Z,96.89
2022-12-03T04:50:28.394Z,96.70
2022-12-03T04:50:59.949Z,96.95
2022-12-03T04:51:31.488Z,97.29
2022-12-03T04:52:03.472Z,97.40
2022-12-03T04:52:35.017Z,97.16
2022-12-03T04:53:06.623Z,97.03
2022-12-03T04:53:43.257Z,96.91
2022-12-03T04:54:17.892Z,96.72
2022-12-03T04:54:49.559Z,96.90
2022-12-03T04:55:21.105Z,96.98
2022-12-03T04:55:52.747Z,96.93
2022-12-03T04:56:24.389Z,97.00
2022-12-03T04:56:56.140Z,97.20
2022-12-03T04:57:27.722Z,96.99
2022-12-03T04:57:59.527Z,97.03
2022-12-03T04:58:31.074Z,96.79
2022-12-03T04:59:02.682Z,96.85
2022-12-03T04:59:35.424Z,96.75
2022-12-03T05:00:07.674Z,96.86
2022-12-03T05:00:39.332Z,96.92
2022-12-03T05:01:10.907Z,96.96
2022-12-03T05:01:42.623Z,97.00
2022-12-03T05:02:14.322Z,96.95
2022-12-03T05:02:45.978Z,97.00
2022-12-03T05:03:17.587Z,96.85
2022-12-03T05:03:49.207Z,96.97
2022-12-03T05:04:20.830Z,97.21
2022-12-03T05:04:52.756Z,96.97
2022-12-03T05:05:24.478Z,96.78
2022-12-03T05:05:56.067Z,96.91
2022-12-03T05:06:27.647Z,96.93
2022-12-03T05:06:59.229Z,96.79
2022-12-03T05:07:30.884Z,96.99
2022-12-03T05:08:02.605Z,96.78
2022-12-03T05:08:34.270Z,96.70
2022-12-03T05:09:06.019Z,96.73
2022-12-03T05:09:37.559Z,96.69
2022-12-03T05:10:10.962Z,96.89
2022-12-03T05:10:42.562Z,97.02
2022-12-03T05:11:14.446Z,97.03
2022-12-03T05:11:46.044Z,96.84
2022-12-03T05:12:17.598Z,96.94
2022-12-03T05:12:49.169Z,97.00
2022-12-03T05:13:20.763Z,97.03
2022-12-03T05:13:52.564Z,96.99
2022-12-03T05:14:24.147Z,97.19
2022-12-03T05:14:56.122Z,97.29
2022-12-03T05:15:27.864Z,97.44
2022-12-03T05:15:59.461Z,97.45
2022-12-03T05:16:31.217Z,97.57
2022-12-03T05:17:02.939Z,97.28
2022-12-03T05:17:34.663Z,97.46
2022-12-03T05:18:06.223Z,97.50
2022-12-03T05:18:37.847Z,97.56
2022-12-03T05:19:09.971Z,97.63
2022-12-03T05:20:00.211Z,97.69
2022-12-03T05:20:47.149Z,97.73
2022-12-03T05:21:24.497Z,97.64
2022-12-03T05:21:56.080Z,97.57
2022-12-03T05:22:27.667Z,97.67
2022-12-03T05:22:59.287Z,97.78
2022-12-03T05:23:30.866Z,97.79
2022-12-03T05:24:02.522Z,97.80
2022-12-03T05:24:34.134Z,97.80
2022-12-03T05:25:06.466Z,97.87
2022-12-03T05:25:38.126Z,97.82
2022-12-03T05:26:10.191Z,97.83
2022-12-03T05:26:41.780Z,97.90
2022-12-03T05:27:13.337Z,97.80
2022-12-03T05:27:44.921Z,97.80
2022-12-03T05:28:16.897Z,97.97
2022-12-03T05:28:48.676Z,98.00
2022-12-03T05:29:20.235Z,98.15
2022-12-03T05:29:52.154Z,98.04
2022-12-03T05:30:23.859Z,97.93
2022-12-03T05:30:55.634Z,97.97
2022-12-03T05:31:27.379Z,98.13
2022-12-03T05:31:58.985Z,98.34
2022-12-03T05:32:30.529Z,98.60
2022-12-03T05:33:02.216Z,98.60
2022-12-03T05:33:33.934Z,98.66
2022-12-03T05:34:06.012Z,98.45
2022-12-03T05:34:37.566Z,98.54
2022-12-03T05:35:10.647Z,98.50
2022-12-03T05:35:42.288Z,98.49
2022-12-03T05:36:13.951Z,98.31
2022-12-03T05:36:45.541Z,98.36
2022-12-03T05:37:17.222Z,98.49
2022-12-03T05:37:48.799Z,98.64
2022-12-03T05:38:20.367Z,98.74
2022-12-03T05:38:51.922Z,98.62
2022-12-03T05:39:23.481Z,98.60
2022-12-03T05:39:55.080Z,98.72
2022-12-03T05:40:26.695Z,98.61
2022-12-03T05:40:58.273Z,98.62
2022-12-03T05:41:48.246Z,98.62
2022-12-03T05:42:38.570Z,98.80
2022-12-03T05:43:10.235Z,98.68
2022-12-03T05:43:41.839Z,98.40
2022-12-03T05:44:18.854Z,98.03
2022-12-03T05:44:52.212Z,98.31
2022-12-03T05:45:30.490Z,98.31
2022-12-03T05:46:02.073Z,98.54
2022-12-03T05:46:33.827Z,98.57
2022-12-03T05:47:05.430Z,98.63
2022-12-03T05:47:37.053Z,98.54
2022-12-03T05:48:11.592Z,98.41
2022-12-03T05:48:43.170Z,98.47
2022-12-03T05:49:14.711Z,98.71
2022-12-03T05:49:46.611Z,98.42
2022-12-03T05:50:18.791Z,98.26
2022-12-03T05:50:50.341Z,98.30
2022-12-03T05:51:21.912Z,98.28
2022-12-03T05:51:58.253Z,98.28
2022-12-03T05:52:30.363Z,98.23
2022-12-03T05:53:02.265Z,98.15
2022-12-03T05:53:33.919Z,97.92
2022-12-03T05:54:05.516Z,97.94
2022-12-03T05:54:37.072Z,97.88
2022-12-03T05:55:09.455Z,97.84
2022-12-03T05:55:41.165Z,97.97
2022-12-03T05:56:12.721Z,97.95
2022-12-03T05:56:44.282Z,97.93
2022-12-03T05:57:15.867Z,98.00
2022-12-03T05:57:47.886Z,98.23
2022-12-03T05:58:19.444Z,98.03
2022-12-03T05:58:50.989Z,98.09
2022-12-03T05:59:22.546Z,98.20
2022-12-03T05:59:54.121Z,98.13
2022-12-03T06:00:28.999Z,98.12
2022-12-03T06:01:00.579Z,98.35
2022-12-03T06:01:32.156Z,98.16
2022-12-03T06:02:04.307Z,98.13
2022-12-03T06:02:36.030Z,98.03
2022-12-03T06:03:08.202Z,98.10
2022-12-03T06:03:39.915Z,98.04
2022-12-03T06:04:11.549Z,98.22
2022-12-03T06:04:43.133Z,98.40
2022-12-03T06:05:16.102Z,98.50
2022-12-03T06:05:47.747Z,98.51
2022-12-03T06:06:19.337Z,98.57
2022-12-03T06:06:50.922Z,98.62
2022-12-03T06:07:22.523Z,98.47
2022-12-03T06:07:54.172Z,98.54
2022-12-03T06:08:25.849Z,98.47
2022-12-03T06:08:57.534Z,98.39
2022-12-03T06:09:29.084Z,98.60
2022-12-03T06:10:00.721Z,98.99
2022-12-03T06:10:32.590Z,98.86
2022-12-03T06:11:04.245Z,98.94
2022-12-03T06:11:37.135Z,98.86
2022-12-03T06:12:11.498Z,98.75
2022-12-03T06:12:43.182Z,98.71
2022-12-03T06:13:14.812Z,98.58
2022-12-03T06:13:46.514Z,98.54
2022-12-03T06:14:18.139Z,98.41
2022-12-03T06:14:49.726Z,98.46
2022-12-03T06:15:21.679Z,98.57
2022-12-03T06:15:53.278Z,98.59
2022-12-03T06:16:24.999Z,98.76
2022-12-03T06:16:56.637Z,98.75
2022-12-03T06:17:28.281Z,98.86
2022-12-03T06:17:59.889Z,99.02
2022-12-03T06:18:31.448Z,99.19
2022-12-03T06:19:03.038Z,99.12
2022-12-03T06:19:34.682Z,98.98
2022-12-03T06:20:07.524Z,98.99
2022-12-03T06:20:39.524Z,99.00
2022-12-03T06:21:11.288Z,98.97
2022-12-03T06:21:42.893Z,98.85
2022-12-03T06:22:14.514Z,98.95
2022-12-03T06:22:46.972Z,98.89
2022-12-03T06:23:18.590Z,98.80
2022-12-03T06:23:50.199Z,98.67
2022-12-03T06:24:21.789Z,98.62
2022-12-03T06:24:53.932Z,98.67
2022-12-03T06:25:25.806Z,98.62
2022-12-03T06:25:57.356Z,98.44
2022-12-03T06:26:30.175Z,98.64
2022-12-03T06:27:01.763Z,98.64
2022-12-03T06:27:33.384Z,98.30
2022-12-03T06:28:05.198Z,98.23
2022-12-03T06:28:36.814Z,98.29
2022-12-03T06:29:08.395Z,98.41
2022-12-03T06:29:40.041Z,98.39
2022-12-03T06:30:13.137Z,98.51
2022-12-03T06:30:44.805Z,98.60
2022-12-03T06:31:16.524Z,98.40
2022-12-03T06:31:48.147Z,98.46
2022-12-03T06:32:19.726Z,98.38
2022-12-03T06:32:51.333Z,98.21
2022-12-03T06:33:23.001Z,98.19
2022-12-03T06:33:54.545Z,98.15
2022-12-03T06:34:26.116Z,98.11
2022-12-03T06:34:57.687Z,98.05
2022-12-03T06:35:29.323Z,98.19
2022-12-03T06:36:00.913Z,98.24
2022-12-03T06:36:32.551Z,98.13
2022-12-03T06:37:04.157Z,98.26
2022-12-03T06:37:35.773Z,98.36
2022-12-03T06:38:07.370Z,98.25
2022-12-03T06:38:38.970Z,98.21
2022-12-03T06:39:10.572Z,98.28
2022-12-03T06:39:42.122Z,98.30
2022-12-03T06:40:14.138Z,98.29
2022-12-03T06:40:45.786Z,98.37
2022-12-03T06:41:17.362Z,98.37
2022-12-03T06:41:49.121Z,98.44
2022-12-03T06:42:20.703Z,98.39
2022-12-03T06:42:52.555Z,98.24
2022-12-03T06:43:24.127Z,98.19
2022-12-03T06:43:55.702Z,98.29
2022-12-03T06:44:27.363Z,98.33
2022-12-03T06:44:58.945Z,98.31
2022-12-03T06:45:30.571Z,98.23
2022-12-03T06:46:02.169Z,98.16
2022-12-03T06:46:33.839Z,98.10
2022-12-03T06:47:05.442Z,98.10
2022-12-03T06:47:37.603Z,98.22
2022-12-03T06:48:09.155Z,98.28
2022-12-03T06:48:40.732Z,98.32
2022-12-03T06:49:12.347Z,98.29
2022-12-03T06:49:43.921Z,98.23
2022-12-03T06:50:15.584Z,98.31
2022-12-03T06:50:47.135Z,98.17
2022-12-03T06:51:18.740Z,98.27
2022-12-03T06:51:50.299Z,98.14
2022-12-03T06:52:21.913Z,98.00
2022-12-03T06:52:53.511Z,97.92
2022-12-03T06:53:25.111Z,97.92
2022-12-03T06:53:56.710Z,97.94
2022-12-03T06:54:28.359Z,97.91
2022-12-03T06:55:00.096Z,97.86
2022-12-03T06:55:31.802Z,97.81
2022-12-03T06:56:03.592Z,97.87
2022-12-03T06:56:41.720Z,97.72
2022-12-03T06:57:16.506Z,97.61
2022-12-03T06:57:48.202Z,97.68
2022-12-03T06:58:19.843Z,97.75
2022-12-03T06:58:51.410Z,97.79
2022-12-03T06:59:22.993Z,97.79
2022-12-03T06:59:54.945Z,97.75
2022-12-03T07:00:26.664Z,97.81
2022-12-03T07:00:58.255Z,97.73
2022-12-03T07:01:29.878Z,97.63
2022-12-03T07:02:01.584Z,97.71
2022-12-03T07:02:33.338Z,97.87
2022-12-03T07:03:05.029Z,97.81
2022-12-03T07:03:36.687Z,97.65
2022-12-03T07:04:08.257Z,97.71
2022-12-03T07:04:44.692Z,97.73
2022-12-03T07:05:17.810Z,97.92
2022-12-03T07:05:49.390Z,97.85
2022-12-03T07:06:21.406Z,97.99
2022-12-03T07:06:52.960Z,97.97
2022-12-03T07:07:24.613Z,97.98
2022-12-03T07:07:56.260Z,98.11
2022-12-03T07:08:28.025Z,98.04
2022-12-03T07:08:59.612Z,97.99
2022-12-03T07:09:31.194Z,97.89